createdAt,value
2022-12-26T00:08:02.212Z,86.1
2022-12-26T00:20:02.223Z,86.1
2022-12-26T00:32:02.258Z,86.1
2022-12-26T00:44:02.120Z,86.1
2022-12-26T00:56:02.226Z,86.6
2022-12-26T01:08:21.491Z,86.7
2022-12-26T01:20:02.375Z,86.6
2022-12-26T01:32:02.253Z,86.0
2022-12-26T01:44:02.176Z,86.0
2022-12-26T01:56:02.124Z,85.9
2022-12-26T02:08:02.128Z,86.1
2022-12-26T02:20:02.237Z,86.0
2022-12-26T02:32:02.314Z,86.2
2022-12-26T02:44:02.104Z,85.3
2022-12-26T02:56:02.216Z,85.7
2022-12-26T03:08:02.214Z,85.7
2022-12-26T03:20:02.177Z,85.9
2022-12-26T03:32:02.106Z,86.2
2022-12-26T03:44:02.233Z,86.8
2022-12-26T03:56:02.230Z,86.3
2022-12-26T04:08:02.219Z,86.0
2022-12-26T04:20:02.203Z,85.8
2022-12-26T04:32:02.100Z,85.4
2022-12-26T04:44:02.236Z,85.9
2022-12-26T04:56:02.129Z,85.9
2022-12-26T05:08:02.136Z,85.7
2022-12-26T05:20:02.109Z,85.9
2022-12-26T05:32:02.227Z,85.9
2022-12-26T05:44:02.130Z,86.2
2022-12-26T05:56:02.210Z,86.1
2022-12-26T06:08:02.205Z,86.1
2022-12-26T06:20:02.128Z,85.8
2022-12-26T06:32:02.306Z,85.7
2022-12-26T06:44:02.237Z,85.5
2022-12-26T06:56:02.143Z,85.7
2022-12-26T07:08:02.235Z,86.6
2022-12-26T07:20:02.193Z,86.1
2022-12-26T07:32:02.346Z,84.6
2022-12-26T07:44:02.204Z,83.9
2022-12-26T07:56:02.208Z,82.9
2022-12-26T08:08:02.226Z,82.0
2022-12-26T08:20:02.223Z,82.3
2022-12-26T08:32:02.120Z,83.6
2022-12-26T08:44:27.897Z,85.2
2022-12-26T08:56:02.268Z,86.4
2022-12-26T09:08:02.116Z,86.5
2022-12-26T09:20:02.120Z,87.8
2022-12-26T09:32:02.220Z,88.3
2022-12-26T09:44:02.109Z,88.6
2022-12-26T09:56:02.220Z,88.3
2022-12-26T10:08:02.213Z,87.7
2022-12-26T10:20:02.149Z,86.6
2022-12-26T10:32:02.234Z,83.2
2022-12-26T10:44:02.304Z,82.0
2022-12-26T10:56:02.113Z,81.3
2022-12-26T11:08:02.111Z,79.0
2022-12-26T11:20:02.103Z,78.8
2022-12-26T11:32:02.149Z,79.1
2022-12-26T11:44:02.204Z,76.2
2022-12-26T11:56:02.214Z,75.2
2022-12-26T12:08:02.129Z,73.1
2022-12-26T12:20:02.222Z,74.1
2022-12-26T12:32:02.260Z,71.8
2022-12-26T12:44:02.109Z,72.1
2022-12-26T12:56:02.184Z,74.4
2022-12-26T13:08:02.207Z,74.6
2022-12-26T13:20:03.057Z,79.8
2022-12-26T13:32:02.173Z,84.7
2022-12-26T13:44:02.218Z,82.8
2022-12-26T13:56:02.566Z,83.0
2022-12-26T14:08:02.124Z,78.9
2022-12-26T14:20:02.248Z,76.5
2022-12-26T14:32:02.110Z,78.2
2022-12-26T14:44:02.211Z,77.4
2022-12-26T14:56:02.111Z,76.6
2022-12-26T15:08:02.323Z,75.2
2022-12-26T15:20:02.106Z,76.5
2022-12-26T15:32:02.102Z,87.9
2022-12-26T15:44:02.165Z,91.0
2022-12-26T15:56:02.234Z,92.0
2022-12-26T16:08:02.205Z,92.7
2022-12-26T16:20:02.350Z,91.6
2022-12-26T16:32:02.139Z,93.2
2022-12-26T16:44:02.235Z,93.9
2022-12-26T16:56:02.107Z,93.7
2022-12-26T17:08:02.197Z,90.4
2022-12-26T17:20:02.106Z,89.1
2022-12-26T17:32:02.105Z,88.6
2022-12-26T17:44:02.175Z,87.4
2022-12-26T17:56:02.118Z,89.0
2022-12-26T18:08:02.200Z,88.4
2022-12-26T18:20:02.209Z,84.6
2022-12-26T18:32:02.114Z,83.1
2022-12-26T18:44:02.098Z,82.6
2022-12-26T18:56:02.155Z,83.3
2022-12-26T19:08:02.116Z,84.2
2022-12-26T19:20:02.218Z,82.5
2022-12-26T19:32:02.346Z,83.1
2022-12-26T19:44:02.180Z,82.8
2022-12-26T19:56:02.234Z,85.5
2022-12-26T20:08:02.111Z,84.1
2022-12-26T20:20:02.104Z,84.2
2022-12-26T20:32:02.110Z,85.7
2022-12-26T20:44:02.235Z,86.7
2022-12-26T20:56:02.211Z,86.9
2022-12-26T21:08:02.168Z,87.0
2022-12-26T21:20:02.114Z,86.5
2022-12-26T21:32:02.195Z,83.8
2022-12-26T21:44:02.217Z,81.6
2022-12-26T21:56:02.104Z,82.0
2022-12-26T22:08:02.125Z,82.5
2022-12-26T22:20:02.118Z,82.1
2022-12-26T22:32:02.154Z,80.6
2022-12-26T22:44:02.195Z,82.0
2022-12-26T22:56:02.243Z,82.0
2022-12-26T23:08:02.121Z,82.6
2022-12-26T23:20:02.144Z,82.9
2022-12-26T23:32:02.122Z,82.7
2022-12-26T23:44:02.120Z,84.1
2022-12-26T23:56:02.108Z,86.6
